Time;durP1;ratioP1;P1;durP2;ratioP2;P2;SDS_P1;SDS_P2;PMS_P1;PMS_P2;Temp;Humidity;BMP_temperature;BMP_pressure;BME280_temperature;BME280_humidity;BME280_pressure;Samples;Min_cycle;Max_cycle;Signal;HPM_P1;HPM_P2
2021/11/02 00:02:46;;;;;;;;;;;;;;;;;;;;;
2021/11/02 00:05:51;;;;;;;4.68;2.30;;;7.20;99.90;;;;;;5060647;28;20074;-94
2021/11/02 00:08:22;;;;;;;4.70;2.40;;;7.20;99.90;;;;;;5053763;28;20072;-95
2021/11/02 00:11:33;;;;;;;4.35;1.95;;;7.20;99.90;;;;;;5065469;28;20032;-93
2021/11/02 00:15:04;;;;;;;;;;;;;;;;;;;;;
2021/11/02 00:17:58;;;;;;;4.30;2.20;;;7.20;99.90;;;;;;4995867;28;20050;-95
2021/11/02 00:20:40;;;;;;;3.47;1.80;;;7.10;99.90;;;;;;4968876;28;20133;-96
2021/11/02 00:23:34;;;;;;;;;;;;;;;;;;;;;
2021/11/02 00:26:49;;;;;;;4.40;1.85;;;7.00;99.90;;;;;;4983510;28;20046;-95
2021/11/02 00:30:15;;;;;;;4.00;1.95;;;7.00;99.90;;;;;;4922319;29;20051;-95
2021/11/02 00:33:02;;;;;;;3.75;1.92;;;6.90;99.90;;;;;;4940633;29;20075;-95
2021/11/02 00:38:39;;;;;;;3.25;1.80;;;6.80;99.90;;;;;;4934535;29;20406;-95
2021/11/02 00:41:43;;;;;;;;;;;;;;;;;;;;;
2021/11/02 00:44:07;;;;;;;4.25;2.17;;;6.80;99.90;;;;;;4979624;28;20046;-96
2021/11/02 00:47:01;;;;;;;4.45;2.55;;;6.80;99.90;;;;;;4967762;28;20510;-95
2021/11/02 00:49:39;;;;;;;3.65;2.05;;;6.80;99.90;;;;;;4975398;28;20042;-95
2021/11/02 00:52:06;;;;;;;3.95;2.00;;;6.80;99.90;;;;;;4959633;28;20038;-95
2021/11/02 00:54:36;;;;;;;4.88;1.85;;;6.80;99.90;;;;;;5048267;28;20071;-95
2021/11/02 00:57:23;;;;;;;;;;;;;;;;;;;;;
2021/11/02 01:03:36;;;;;;;;;;;;;;;;;;;;;
2021/11/02 01:06:37;;;;;;;4.30;1.90;;;6.60;99.90;;;;;;5075858;28;20045;-95
2021/11/02 01:13:01;;;;;;;;;;;;;;;;;;;;;
2021/11/02 01:15:33;;;;;;;4.63;2.13;;;6.60;99.90;;;;;;5068652;28;20060;-96
2021/11/02 01:18:30;;;;;;;4.85;2.25;;;6.60;99.90;;;;;;5078422;28;20036;-95
2021/11/02 01:21:02;;;;;;;4.50;2.17;;;6.50;99.90;;;;;;5057211;28;20052;-96
2021/11/02 01:23:44;;;;;;;4.85;2.40;;;6.50;99.90;;;;;;5058006;28;20048;-95
2021/11/02 01:26:15;;;;;;;5.35;2.20;;;6.50;99.90;;;;;;5049099;28;20051;-94
2021/11/02 01:28:45;;;;;;;4.22;2.20;;;6.50;99.90;;;;;;5034688;28;20048;-93
2021/11/02 01:31:17;;;;;;;6.03;2.25;;;6.50;99.90;;;;;;5037510;28;20040;-94
2021/11/02 01:33:44;;;;;;;4.03;1.95;;;6.50;99.90;;;;;;5057984;28;20037;-93
2021/11/02 01:36:15;;;;;;;4.07;2.03;;;6.50;99.90;;;;;;5057806;28;20029;-93
2021/11/02 01:38:45;;;;;;;3.22;1.90;;;6.50;99.90;;;;;;5038476;28;20033;-94
2021/11/02 01:41:18;;;;;;;5.70;2.38;;;6.50;99.90;;;;;;5056350;28;20040;-93
2021/11/02 01:43:44;;;;;;;5.15;2.13;;;6.40;99.90;;;;;;5052192;28;20058;-92
2021/11/02 01:46:43;;;;;;;5.85;1.83;;;6.40;99.90;;;;;;5035320;28;20060;-93
2021/11/02 01:49:18;;;;;;;4.20;2.30;;;6.40;99.90;;;;;;5036433;28;20033;-93
2021/11/02 01:51:50;;;;;;;5.10;2.40;;;6.40;99.90;;;;;;5059835;28;20040;-93
2021/11/02 01:54:21;;;;;;;6.10;2.47;;;6.30;99.90;;;;;;5036612;28;20043;-93
2021/11/02 01:56:54;;;;;;;5.55;2.90;;;6.30;99.90;;;;;;5044255;28;20044;-93
2021/11/02 01:59:28;;;;;;;5.47;2.40;;;6.40;99.90;;;;;;5040687;28;20048;-94
2021/11/02 02:02:07;;;;;;;6.65;3.03;;;6.40;99.90;;;;;;5041642;28;20112;-94
2021/11/02 02:05:13;;;;;;;7.80;3.15;;;6.40;99.90;;;;;;5054910;28;20036;-94
2021/11/02 02:08:06;;;;;;;5.22;2.45;;;6.40;99.90;;;;;;5074344;28;20020;-93
2021/11/02 02:11:00;;;;;;;6.10;2.50;;;6.50;99.90;;;;;;5075284;28;20060;-93
2021/11/02 02:14:27;;;;;;;5.60;2.65;;;6.40;99.90;;;;;;5056792;28;20025;-94
2021/11/02 02:16:58;;;;;;;4.95;2.40;;;6.40;99.90;;;;;;4956951;28;20043;-94
2021/11/02 02:19:55;;;;;;;;;;;;;;;;;;;;;
2021/11/02 02:22:52;;;;;;;6.78;2.60;;;6.40;99.90;;;;;;5073613;28;20392;-93
2021/11/02 02:26:05;;;;;;;6.35;2.40;;;6.40;99.90;;;;;;5053847;28;20036;-95
2021/11/02 02:28:37;;;;;;;5.82;2.42;;;6.40;99.90;;;;;;4942550;29;20035;-94
2021/11/02 02:31:11;;;;;;;4.60;1.95;;;6.40;99.90;;;;;;4918376;29;20087;-94
2021/11/02 02:33:54;;;;;;;6.43;2.60;;;6.40;99.90;;;;;;4980398;28;20041;-94
2021/11/02 02:36:35;;;;;;;6.68;3.10;;;6.40;99.90;;;;;;4979490;28;20049;-94
2021/11/02 02:39:04;;;;;;;4.63;2.53;;;6.40;99.90;;;;;;5001474;28;20041;-95
2021/11/02 02:41:44;;;;;;;4.75;2.55;;;6.40;99.90;;;;;;5056261;28;20055;-94
2021/11/02 02:44:23;;;;;;;5.10;2.75;;;6.40;99.90;;;;;;5055628;28;20119;-94
2021/11/02 02:47:27;;;;;;;;;;;;;;;;;;;;;
2021/11/02 02:50:02;;;;;;;5.65;2.65;;;6.40;99.90;;;;;;5072147;28;20383;-94
2021/11/02 02:52:40;;;;;;;7.60;2.78;;;6.40;99.90;;;;;;5054223;28;20035;-94
2021/11/02 02:55:08;;;;;;;4.75;2.53;;;6.30;99.90;;;;;;5053944;28;20029;-94
2021/11/02 02:57:38;;;;;;;6.40;2.60;;;6.30;99.90;;;;;;5038564;28;20040;-95
2021/11/02 03:00:10;;;;;;;5.20;2.30;;;6.30;99.90;;;;;;5055512;28;20047;-94
2021/11/02 03:02:44;;;;;;;5.05;2.40;;;6.30;99.90;;;;;;5054570;28;20112;-94
2021/11/02 03:05:33;;;;;;;;;;;;;;;;;;;;;
2021/11/02 03:08:00;;;;;;;5.63;2.60;;;6.30;99.90;;;;;;5069987;28;19908;-95
2021/11/02 03:11:00;;;;;;;4.93;2.53;;;6.30;99.90;;;;;;5069993;28;20036;-95
2021/11/02 03:13:56;;;;;;;5.60;2.53;;;6.30;99.90;;;;;;5075824;28;20085;-94
2021/11/02 05:56:56;;;;;;;3.25;2.05;;;5.70;99.90;;;;;;4946692;29;20106;-95
2021/11/02 05:59:38;;;;;;;4.35;2.38;;;5.60;99.90;;;;;;4906453;29;20135;-96
2021/11/02 06:29:26;;;;;;;3.35;1.85;;;5.80;99.90;;;;;;4880789;29;20031;-95
2021/11/02 06:32:30;;;;;;;;;;;;;;;;;;;;;
2021/11/02 06:47:57;;;;;;;5.93;2.53;;;6.00;99.90;;;;;;4877234;29;20059;-94
2021/11/02 06:51:05;;;;;;;6.40;3.33;;;6.10;99.90;;;;;;4917582;29;20438;-96
2021/11/02 06:54:50;;;;;;;;;;;;;;;;;;;;;
2021/11/02 07:19:50;;;;;;;8.45;3.90;;;6.40;99.90;;;;;;4991690;28;20126;-96
2021/11/02 07:27:11;;;;;;;7.70;4.25;;;6.50;99.90;;;;;;4932593;28;20546;-96
2021/11/02 08:51:03;;;;;;;8.02;6.15;;;8.10;99.90;;;;;;5072668;28;20500;-94
2021/11/02 08:53:39;;;;;;;10.65;6.20;;;8.10;99.90;;;;;;5048724;28;20047;-95
2021/11/02 08:56:08;;;;;;;8.93;5.35;;;8.10;99.90;;;;;;5065760;28;20039;-94
2021/11/02 08:59:06;;;;;;;9.30;5.93;;;8.10;99.90;;;;;;5090715;28;20032;-95
2021/11/02 09:01:56;;;;;;;;;;;;;;;;;;;;;
2021/11/02 09:04:37;;;;;;;8.75;5.28;;;8.20;99.90;;;;;;4988958;28;20062;-94
2021/11/02 09:07:12;;;;;;;6.55;4.90;;;8.20;99.90;;;;;;5038271;28;20036;-94
2021/11/02 09:10:02;;;;;;;8.10;5.50;;;8.30;99.90;;;;;;5057910;28;20075;-94
2021/11/02 09:12:33;;;;;;;9.75;5.78;;;8.30;99.90;;;;;;5045161;28;20481;-94
2021/11/02 09:15:48;;;;;;;8.50;5.30;;;8.40;99.90;;;;;;5057934;28;20082;-93
2021/11/02 09:18:45;;;;;;;8.57;5.57;;;8.40;99.90;;;;;;5041998;28;20040;-94
2021/11/02 09:21:29;;;;;;;7.20;5.95;;;8.40;99.90;;;;;;5048055;28;20041;-94
2021/11/02 09:24:04;;;;;;;8.55;5.70;;;8.40;99.90;;;;;;5056143;28;20119;-93
2021/11/02 09:27:01;;;;;;;7.60;5.00;;;8.40;99.90;;;;;;5037747;28;20040;-93
2021/11/02 09:29:36;;;;;;;7.28;4.97;;;8.50;99.90;;;;;;5080811;28;20028;-93
2021/11/02 09:32:06;;;;;;;8.00;4.95;;;8.60;99.90;;;;;;5058519;28;20082;-93
2021/11/02 09:34:45;;;;;;;8.38;5.32;;;8.60;99.90;;;;;;5060529;28;20082;-94
2021/11/02 09:37:23;;;;;;;6.65;4.75;;;8.60;99.90;;;;;;5076842;28;20060;-94
2021/11/02 09:39:52;;;;;;;8.52;5.13;;;8.60;99.90;;;;;;5059785;28;20036;-93
2021/11/02 09:42:58;;;;;;;7.13;5.40;;;8.70;99.90;;;;;;5049981;28;20104;-93
2021/11/02 09:45:55;;;;;;;9.82;6.05;;;8.70;99.90;;;;;;5075194;28;20033;-94
2021/11/02 09:49:05;;;;;;;9.20;5.78;;;8.70;99.90;;;;;;5044679;28;20036;-94
2021/11/02 09:51:58;;;;;;;7.65;5.68;;;8.70;99.90;;;;;;5053429;28;20024;-95
2021/11/02 09:54:43;;;;;;;7.60;5.55;;;8.70;99.90;;;;;;5032871;28;20026;-93
2021/11/02 09:57:38;;;;;;;8.43;5.25;;;8.70;99.90;;;;;;5013743;28;20104;-93
2021/11/02 10:00:31;;;;;;;9.15;6.10;;;8.70;99.90;;;;;;5010335;28;20064;-95
2021/11/02 10:03:47;;;;;;;8.75;5.63;;;8.70;99.90;;;;;;5018138;28;20022;-93
2021/11/02 10:07:22;;;;;;;8.10;5.90;;;8.70;99.90;;;;;;5016234;28;20034;-92
2021/11/02 10:10:45;;;;;;;9.60;7.15;;;8.80;99.90;;;;;;4880112;29;20116;-93
2021/11/02 10:16:47;;;;;;;8.85;6.47;;;8.80;99.90;;;;;;4934624;29;20184;-92
2021/11/02 10:19:50;;;;;;;9.60;6.93;;;8.80;99.90;;;;;;4956724;28;20029;-93
2021/11/02 10:23:04;;;;;;;;;;;;;;;;;;;;;
2021/11/02 10:26:23;;;;;;;8.30;5.55;;;8.90;99.90;;;;;;5035618;28;20024;-95
2021/11/02 10:32:59;;;;;;;;;;;;;;;;;;;;;
2021/11/02 10:39:51;;;;;;;8.30;6.57;;;9.10;99.90;;;;;;5004788;28;20549;-96
2021/11/02 10:42:58;;;;;;;8.60;5.70;;;9.20;99.90;;;;;;4991005;28;20042;-96
2021/11/02 10:46:22;;;;;;;9.88;7.10;;;9.30;99.90;;;;;;5011321;28;20064;-96
2021/11/02 10:53:14;;;;;;;9.55;7.28;;;9.50;99.90;;;;;;4933489;29;20083;-96
2021/11/02 10:56:26;;;;;;;10.18;7.28;;;9.60;99.90;;;;;;4929809;29;20047;-96
2021/11/02 11:28:32;;;;;;;;;;;;;;;;;;;;;
2021/11/02 11:31:37;;;;;;;7.43;6.50;;;9.70;99.90;;;;;;4770656;30;20126;-94
2021/11/02 11:38:26;;;;;;;;;;;;;;;;;;;;;
2021/11/02 11:54:16;;;;;;;11.85;8.23;;;9.80;99.90;;;;;;4825908;29;20050;-96
2021/11/02 12:13:50;;;;;;;9.43;7.78;;;10.00;99.90;;;;;;5073355;28;20056;-93
2021/11/02 12:16:49;;;;;;;10.50;7.95;;;10.00;99.90;;;;;;5043755;28;20037;-93
2021/11/02 12:19:44;;;;;;;10.27;8.52;;;10.00;99.90;;;;;;5054139;28;20468;-95
2021/11/02 12:23:06;;;;;;;;;;;;;;;;;;;;;
2021/11/02 12:26:01;;;;;;;11.00;8.73;;;9.90;99.90;;;;;;5065507;28;20032;-93
2021/11/02 12:28:48;;;;;;;10.40;8.07;;;10.00;99.90;;;;;;5074320;28;20028;-93
2021/11/02 12:31:26;;;;;;;12.20;8.90;;;10.00;99.90;;;;;;5042342;28;20025;-95
2021/11/02 12:34:16;;;;;;;11.95;8.88;;;10.00;99.90;;;;;;5064400;28;20039;-96
2021/11/02 12:37:05;;;;;;;11.70;8.68;;;10.00;99.90;;;;;;5045843;28;20090;-96
2021/11/02 12:40:32;;;;;;;9.23;7.72;;;10.00;99.90;;;;;;5051832;28;20044;-96
2021/11/02 12:47:30;;;;;;;8.02;6.25;;;10.00;99.90;;;;;;4985317;28;20035;-96
2021/11/02 12:50:09;;;;;;;7.75;6.60;;;10.10;99.90;;;;;;4964591;28;20090;-94
2021/11/02 12:53:11;;;;;;;8.50;6.68;;;10.20;99.90;;;;;;5039956;28;20499;-95
2021/11/02 12:56:17;;;;;;;7.75;5.72;;;10.30;99.90;;;;;;5052785;28;20032;-95
2021/11/02 12:59:18;;;;;;;8.13;6.85;;;10.40;99.90;;;;;;5045440;28;20045;-95
2021/11/02 13:02:34;;;;;;;9.40;7.85;;;10.40;99.90;;;;;;5044002;28;20101;-95
2021/11/02 13:05:36;;;;;;;9.80;8.48;;;10.40;99.90;;;;;;5058133;28;20052;-94
2021/11/02 13:08:34;;;;;;;11.23;7.47;;;10.40;99.90;;;;;;5066402;28;20047;-94
2021/11/02 13:11:21;;;;;;;9.18;7.32;;;10.40;99.90;;;;;;5032939;28;20495;-96
2021/11/02 13:14:07;;;;;;;9.82;7.82;;;10.60;99.90;;;;;;5054552;28;20045;-95
2021/11/02 13:16:59;;;;;;;8.85;7.80;;;10.90;99.90;;;;;;5060241;28;20109;-94
2021/11/02 13:19:48;;;;;;;9.35;8.07;;;11.40;99.90;;;;;;5028733;28;20033;-94
2021/11/02 13:22:39;;;;;;;13.27;9.43;;;11.60;99.90;;;;;;5068553;28;20036;-95
2021/11/02 13:25:39;;;;;;;10.27;8.60;;;11.50;99.90;;;;;;5060840;28;20045;-93
2021/11/02 13:28:33;;;;;;;9.88;7.95;;;11.40;99.90;;;;;;5067909;28;20565;-92
2021/11/02 13:31:31;;;;;;;9.90;7.82;;;11.30;99.90;;;;;;5085605;28;20115;-93
2021/11/02 13:34:34;;;;;;;10.83;7.73;;;11.30;99.90;;;;;;5031226;28;20093;-92
2021/11/02 13:37:29;;;;;;;10.48;8.65;;;11.20;99.90;;;;;;5062479;28;20036;-94
2021/11/02 13:40:16;;;;;;;;;;;;;;;;;;;;;
2021/11/02 13:43:06;;;;;;;11.90;8.82;;;10.90;99.90;;;;;;5080597;28;20044;-94
2021/11/02 13:45:54;;;;;;;10.60;7.97;;;10.80;99.90;;;;;;5060563;28;20041;-93
2021/11/02 13:48:26;;;;;;;10.32;8.18;;;10.70;99.90;;;;;;5074918;28;20097;-92
2021/11/02 13:51:03;;;;;;;10.55;7.68;;;10.60;99.90;;;;;;5075159;28;20035;-92
2021/11/02 13:53:40;;;;;;;9.77;7.75;;;10.60;99.90;;;;;;5058864;28;20082;-92
2021/11/02 13:56:30;;;;;;;10.50;8.15;;;10.50;99.90;;;;;;5044467;28;20040;-93
2021/11/02 13:59:25;;;;;;;8.52;7.38;;;10.40;99.90;;;;;;5051531;28;20078;-93
2021/11/02 14:02:26;;;;;;;10.15;7.03;;;10.30;99.90;;;;;;5047152;28;20090;-93
2021/11/02 14:04:58;;;;;;;7.88;6.93;;;10.20;99.90;;;;;;5070626;28;20496;-92
2021/11/02 14:07:56;;;;;;;8.88;6.47;;;10.10;99.90;;;;;;5054108;28;20061;-94
2021/11/02 14:10:30;;;;;;;9.07;6.57;;;10.10;99.90;;;;;;5083586;28;20067;-93
2021/11/02 14:13:12;;;;;;;8.50;6.35;;;10.00;99.90;;;;;;5090853;28;20020;-93
2021/11/02 14:16:01;;;;;;;9.07;6.38;;;10.00;99.90;;;;;;5040417;28;20036;-92
2021/11/02 14:22:39;;;;;;;7.95;6.00;;;10.00;99.90;;;;;;5047281;28;20075;-93
2021/11/02 14:25:37;;;;;;;7.53;5.40;;;10.00;99.90;;;;;;5072396;28;20139;-93
2021/11/02 14:28:05;;;;;;;6.43;4.75;;;9.90;99.90;;;;;;4956018;28;20053;-93
2021/11/02 14:31:02;;;;;;;5.00;3.92;;;10.00;99.90;;;;;;5034664;28;20044;-94
2021/11/02 14:33:56;;;;;;;4.00;2.53;;;10.00;99.90;;;;;;5069735;28;20078;-92
2021/11/02 14:37:07;;;;;;;3.10;1.92;;;9.80;99.90;;;;;;5071511;28;20028;-93
2021/11/02 14:40:15;;;;;;;1.88;1.35;;;9.70;99.90;;;;;;5065809;28;20037;-92
2021/11/02 14:43:07;;;;;;;1.42;0.98;;;9.50;99.90;;;;;;5053522;28;20048;-92
2021/11/02 14:46:17;;;;;;;2.00;1.25;;;9.40;99.90;;;;;;5054016;28;20059;-92
2021/11/02 14:49:00;;;;;;;;;;;;;;;;;;;;;
2021/11/02 14:51:56;;;;;;;2.22;1.80;;;9.30;99.90;;;;;;5071518;28;20051;-92
2021/11/02 14:55:09;;;;;;;;;;;;;;;;;;;;;
2021/11/02 14:58:26;;;;;;;;;;;;;;;;;;;;;
2021/11/02 15:01:15;;;;;;;2.78;1.83;;;9.00;99.90;;;;;;5090407;28;20040;-94
2021/11/02 15:04:19;;;;;;;2.22;1.63;;;8.90;99.90;;;;;;5071346;28;20060;-95
2021/11/02 15:07:08;;;;;;;2.47;1.60;;;8.90;99.90;;;;;;5073776;28;20048;-96
2021/11/02 15:09:39;;;;;;;2.63;1.75;;;8.80;99.90;;;;;;5056279;28;20043;-94
2021/11/02 15:12:09;;;;;;;2.15;1.42;;;8.90;99.90;;;;;;5037441;28;20127;-94
2021/11/02 15:14:40;;;;;;;1.85;1.20;;;8.90;99.90;;;;;;5058133;28;20045;-94
2021/11/02 15:17:20;;;;;;;2.00;1.52;;;8.90;99.90;;;;;;5027938;28;20059;-93
2021/11/02 15:19:48;;;;;;;2.55;1.48;;;9.00;99.90;;;;;;5056049;28;20499;-90
2021/11/02 15:22:28;;;;;;;2.38;1.50;;;8.90;99.90;;;;;;5056022;28;20040;-91
2021/11/02 15:25:08;;;;;;;3.08;1.67;;;9.00;99.90;;;;;;5059339;28;20052;-93
2021/11/02 15:27:37;;;;;;;2.45;1.83;;;8.90;99.90;;;;;;5039351;28;20040;-91
2021/11/02 15:30:20;;;;;;;2.60;1.90;;;8.90;99.90;;;;;;5056130;28;20091;-91
2021/11/02 15:32:55;;;;;;;2.20;1.80;;;8.90;99.90;;;;;;5060039;28;20032;-90
2021/11/02 15:35:24;;;;;;;2.15;1.83;;;9.00;99.90;;;;;;5070969;28;20032;-92
2021/11/02 15:38:11;;;;;;;3.80;2.50;;;8.90;99.90;;;;;;5053689;28;20198;-92
2021/11/02 15:40:39;;;;;;;4.45;2.83;;;9.00;99.90;;;;;;5050186;28;20140;-90
2021/11/02 15:43:25;;;;;;;5.07;3.38;;;8.90;99.90;;;;;;5038375;28;20103;-91
2021/11/02 15:45:57;;;;;;;5.13;3.33;;;9.00;99.90;;;;;;5039809;28;20066;-90
2021/11/02 15:48:53;;;;;;;4.60;3.17;;;8.90;99.90;;;;;;5054766;28;20028;-91
2021/11/02 15:51:20;;;;;;;4.18;2.85;;;8.90;99.90;;;;;;5053943;28;20086;-91
2021/11/02 15:53:50;;;;;;;4.95;4.07;;;9.00;99.90;;;;;;5037888;28;20032;-92
2021/11/02 15:56:28;;;;;;;6.85;4.30;;;9.00;99.90;;;;;;5054270;28;20040;-93
2021/11/02 15:58:58;;;;;;;5.88;4.70;;;9.00;99.90;;;;;;5041458;28;20033;-92
2021/11/02 16:01:49;;;;;;;6.55;5.53;;;9.00;99.90;;;;;;5039690;28;20033;-92
2021/11/02 16:04:21;;;;;;;7.28;5.45;;;9.10;99.90;;;;;;5053474;28;20040;-92
2021/11/02 16:07:09;;;;;;;7.20;5.63;;;9.10;99.90;;;;;;5058693;28;20120;-91
2021/11/02 16:09:56;;;;;;;7.88;6.57;;;9.10;99.90;;;;;;5028729;28;20074;-91
2021/11/02 16:12:45;;;;;;;8.73;7.10;;;9.10;99.90;;;;;;5057725;28;20560;-92
2021/11/02 16:15:28;;;;;;;8.27;6.25;;;9.10;99.90;;;;;;5074307;28;20077;-93
2021/11/02 16:18:21;;;;;;;9.18;7.00;;;9.00;99.90;;;;;;5050381;28;20119;-91
2021/11/02 16:20:58;;;;;;;8.90;6.60;;;9.00;99.90;;;;;;5056963;28;20044;-92
2021/11/02 16:24:00;;;;;;;8.60;6.35;;;9.00;99.90;;;;;;5041296;28;20040;-92
2021/11/02 16:26:42;;;;;;;8.23;6.25;;;9.00;99.90;;;;;;5065238;28;20028;-91
2021/11/02 16:29:37;;;;;;;7.07;6.20;;;9.00;99.90;;;;;;5054478;28;20031;-91
2021/11/02 16:32:27;;;;;;;6.95;5.45;;;9.10;99.90;;;;;;5062038;28;20036;-92
2021/11/02 16:38:38;;;;;;;6.22;4.40;;;9.00;99.90;;;;;;5040737;28;20116;-91
2021/11/02 16:41:43;;;;;;;6.07;3.45;;;9.00;99.90;;;;;;5055090;28;20044;-92
2021/11/02 16:44:18;;;;;;;4.95;3.50;;;9.00;99.90;;;;;;5041413;28;20045;-92
2021/11/02 16:46:53;;;;;;;4.40;3.28;;;9.00;99.90;;;;;;5057199;28;20094;-92
2021/11/02 16:49:49;;;;;;;5.63;2.75;;;9.00;99.90;;;;;;5054483;28;20096;-92
2021/11/02 16:52:35;;;;;;;3.63;2.92;;;9.00;99.90;;;;;;5072350;28;20103;-93
2021/11/02 16:55:43;;;;;;;4.25;2.95;;;9.00;99.90;;;;;;5056568;28;20032;-93
2021/11/02 16:58:34;;;;;;;4.45;2.47;;;8.90;99.90;;;;;;5045860;28;20124;-93
2021/11/02 17:01:27;;;;;;;4.50;2.13;;;8.90;99.90;;;;;;5051503;28;20055;-93
2021/11/02 17:04:01;;;;;;;3.50;2.40;;;8.90;99.90;;;;;;5052625;28;20045;-91
2021/11/02 17:07:09;;;;;;;4.93;2.63;;;8.80;99.90;;;;;;5071214;28;20029;-91
2021/11/02 17:10:25;;;;;;;3.72;2.38;;;8.70;99.90;;;;;;5038880;28;20036;-93
2021/11/02 17:13:20;;;;;;;3.42;2.20;;;8.70;99.90;;;;;;5033698;28;20063;-92
2021/11/02 17:16:23;;;;;;;4.38;2.15;;;8.60;99.90;;;;;;5065633;28;20044;-91
2021/11/02 17:19:06;;;;;;;2.72;2.20;;;8.60;99.90;;;;;;5052775;28;20069;-92
2021/11/02 17:21:39;;;;;;;5.87;2.30;;;8.50;99.90;;;;;;5070321;28;20147;-92
2021/11/02 17:24:13;;;;;;;2.60;1.83;;;8.50;99.90;;;;;;5056530;28;20041;-92
2021/11/02 17:26:52;;;;;;;3.25;2.00;;;8.60;99.90;;;;;;5056474;28;20033;-91
2021/11/02 17:29:31;;;;;;;;;;;;;;;;;;;;;
2021/11/02 17:31:59;;;;;;;3.08;1.90;;;8.50;99.90;;;;;;5050751;28;20040;-91
2021/11/02 17:34:36;;;;;;;3.97;2.00;;;8.50;99.90;;;;;;5044860;28;20064;-92
2021/11/02 17:37:17;;;;;;;3.25;2.30;;;8.50;99.90;;;;;;5058208;28;20082;-92
2021/11/02 17:39:57;;;;;;;4.18;2.20;;;8.40;99.90;;;;;;5055918;28;20039;-92
2021/11/02 17:42:29;;;;;;;4.25;2.13;;;8.40;99.90;;;;;;5062986;28;20028;-92
2021/11/02 17:45:00;;;;;;;3.03;2.33;;;8.40;99.90;;;;;;5080709;28;20043;-91
2021/11/02 17:47:56;;;;;;;3.40;2.30;;;8.30;99.90;;;;;;5050556;28;20480;-91
2021/11/02 17:50:29;;;;;;;4.50;2.47;;;8.30;99.90;;;;;;5055548;28;20033;-91
2021/11/02 17:53:20;;;;;;;5.97;2.80;;;8.20;99.90;;;;;;5049465;28;20094;-92
2021/11/02 17:55:58;;;;;;;3.70;2.40;;;8.20;99.90;;;;;;5057698;28;20036;-91
2021/11/02 17:58:31;;;;;;;3.65;2.30;;;8.10;99.90;;;;;;5069230;28;20451;-92
2021/11/02 18:01:00;;;;;;;;;;;8.10;99.90;;;;;;5064705;28;20040;-92
2021/11/02 18:03:32;;;;;;;3.85;2.28;;;8.10;99.90;;;;;;5072292;28;20003;-91
2021/11/02 18:06:22;;;;;;;3.58;2.47;;;8.10;99.90;;;;;;5065426;28;20031;-93
2021/11/02 18:08:55;;;;;;;3.22;2.17;;;8.10;99.90;;;;;;5072307;28;20353;-93
2021/11/02 18:11:28;;;;;;;4.28;3.03;;;8.10;99.90;;;;;;5052370;28;20476;-92
2021/11/02 18:13:57;;;;;;;5.88;2.50;;;8.20;99.90;;;;;;5074027;28;20047;-91
2021/11/02 18:16:37;;;;;;;4.70;2.78;;;8.20;99.90;;;;;;5054353;28;20102;-92
2021/11/02 18:19:11;;;;;;;4.63;2.83;;;8.30;99.90;;;;;;5055249;28;20506;-92
2021/11/02 18:22:02;;;;;;;4.45;2.72;;;8.30;99.90;;;;;;5057508;28;20023;-92
2021/11/02 18:24:35;;;;;;;3.90;2.72;;;8.30;99.90;;;;;;5052477;28;20047;-92
2021/11/02 18:27:04;;;;;;;4.15;2.65;;;8.30;99.90;;;;;;5053871;28;20040;-92
2021/11/02 18:29:31;;;;;;;4.75;2.65;;;8.30;99.90;;;;;;5059353;28;20040;-91
2021/11/02 18:32:06;;;;;;;3.95;3.03;;;8.30;99.90;;;;;;5090912;28;20047;-93
2021/11/02 18:34:47;;;;;;;4.22;2.83;;;8.30;99.90;;;;;;5073197;28;20030;-91
2021/11/02 18:37:41;;;;;;;4.20;2.60;;;8.20;99.90;;;;;;5073886;28;20122;-92
2021/11/02 18:40:15;;;;;;;5.47;2.90;;;8.20;99.90;;;;;;5061864;28;20028;-91
2021/11/02 18:43:13;;;;;;;4.75;3.05;;;8.30;99.90;;;;;;5083111;28;20028;-91
2021/11/02 18:45:48;;;;;;;2.53;2.17;;;8.20;99.90;;;;;;5058858;28;20041;-91
2021/11/02 18:48:15;;;;;;;3.38;2.45;;;8.30;99.90;;;;;;5058187;28;20119;-92
2021/11/02 18:51:07;;;;;;;4.88;2.42;;;8.30;99.90;;;;;;5057127;28;20054;-91
2021/11/02 18:53:45;;;;;;;;;;;;;;;;;;;;;
2021/11/02 18:56:15;;;;;;;5.28;2.63;;;8.30;99.90;;;;;;5090502;28;20474;-92
2021/11/02 18:58:50;;;;;;;5.40;2.58;;;8.30;99.90;;;;;;5074450;28;20091;-91
2021/11/02 19:01:49;;;;;;;3.22;2.60;;;8.30;99.90;;;;;;5038154;28;20044;-92
2021/11/02 19:04:24;;;;;;;6.25;2.58;;;8.30;99.90;;;;;;5088061;28;20032;-91
2021/11/02 19:06:52;;;;;;;6.13;2.70;;;8.40;99.90;;;;;;5071652;28;20490;-92
2021/11/02 19:09:27;;;;;;;4.18;2.58;;;8.40;99.90;;;;;;5056115;28;20071;-91
2021/11/02 19:11:57;;;;;;;3.33;2.70;;;8.30;99.90;;;;;;5074373;28;20035;-92
2021/11/02 19:14:30;;;;;;;4.07;2.55;;;8.30;99.90;;;;;;5039569;28;20576;-92
2021/11/02 19:17:00;;;;;;;3.13;2.28;;;8.30;99.90;;;;;;5067110;28;20182;-92
2021/11/02 19:19:29;;;;;;;2.90;2.17;;;8.30;99.90;;;;;;5054140;28;20102;-93
2021/11/02 19:21:57;;;;;;;5.38;2.78;;;8.20;99.90;;;;;;5037866;28;20060;-91
2021/11/02 19:24:37;;;;;;;4.90;3.38;;;8.10;99.90;;;;;;5033456;28;20037;-91
2021/11/02 19:27:08;;;;;;;5.13;4.03;;;8.10;99.90;;;;;;5050334;28;20109;-92
2021/11/02 19:30:24;;;;;;;5.93;4.75;;;8.00;99.90;;;;;;5054355;28;20021;-92
2021/11/02 19:33:33;;;;;;;5.75;4.30;;;8.00;99.90;;;;;;5066037;28;20020;-93
2021/11/02 19:36:56;;;;;;;;;;;;;;;;;;;;;
2021/11/02 19:43:42;;;;;;;6.85;5.35;;;7.80;99.90;;;;;;4964011;28;20055;-93
2021/11/02 19:46:59;;;;;;;8.45;6.35;;;7.70;99.90;;;;;;4915451;29;20039;-93
2021/11/02 19:49:56;;;;;;;10.30;7.05;;;7.80;99.90;;;;;;4946683;28;20043;-92
2021/11/02 19:53:21;;;;;;;;;;;;;;;;;;;;;
2021/11/02 19:56:06;;;;;;;10.05;7.35;;;7.80;99.90;;;;;;4994127;28;20039;-93
2021/11/02 19:59:09;;;;;;;10.35;7.90;;;7.80;99.90;;;;;;4993562;28;20045;-93
2021/11/02 20:02:27;;;;;;;;;;;;;;;;;;;;;
2021/11/02 20:05:37;;;;;;;;;;;;;;;;;;;;;
2021/11/02 20:08:22;;;;;;;18.80;13.73;;;8.00;99.90;;;;;;4956176;28;20055;-91
2021/11/02 20:11:23;;;;;;;20.75;14.95;;;8.00;99.90;;;;;;4998971;28;20034;-91
2021/11/02 20:18:22;;;;;;;;;;;;;;;;;;;;;
2021/11/02 20:21:24;;;;;;;;;;;;;;;;;;;;;
2021/11/02 20:28:54;;;;;;;21.10;15.93;;;8.00;99.90;;;;;;4868894;29;20481;-93
2021/11/02 20:31:28;;;;;;;28.08;20.00;;;8.00;99.90;;;;;;4876242;29;20045;-92
2021/11/02 20:38:45;;;;;;;;;;;;;;;;;;;;;
2021/11/02 20:42:12;;;;;;;;;;;;;;;;;;;;;
2021/11/02 20:45:10;;;;;;;25.15;17.90;;;8.10;99.90;;;;;;4837464;29;20037;-93
2021/11/02 21:01:59;;;;;;;12.75;9.02;;;8.10;99.90;;;;;;4886946;29;20033;-92
2021/11/02 21:10:24;;;;;;;12.10;8.57;;;7.80;99.90;;;;;;5091449;28;20048;-94
2021/11/02 21:13:37;;;;;;;10.00;7.57;;;7.80;99.90;;;;;;4962672;28;20039;-92
2021/11/02 21:16:55;;;;;;;;;;;;;;;;;;;;;
2021/11/02 21:20:10;;;;;;;13.45;9.40;;;7.60;99.90;;;;;;5029301;28;20033;-93
2021/11/02 21:26:22;;;;;;;12.48;8.82;;;7.50;99.90;;;;;;5033959;28;20653;-91
2021/11/02 21:29:32;;;;;;;;;;;;;;;;;;;;;
2021/11/02 21:35:34;;;;;;;12.88;9.30;;;7.40;99.90;;;;;;4974459;28;20063;-92
2021/11/02 21:38:50;;;;;;;;;;;;;;;;;;;;;
2021/11/02 21:46:04;;;;;;;;;;;;;;;;;;;;;
2021/11/02 21:49:16;;;;;;;;;;;;;;;;;;;;;
2021/11/02 21:52:13;;;;;;;13.65;10.10;;;7.00;99.90;;;;;;4997152;28;20107;-92
2021/11/02 21:58:35;;;;;;;12.20;9.57;;;6.90;99.90;;;;;;4974323;28;20043;-94
2021/11/02 22:01:09;;;;;;;14.38;10.40;;;6.90;99.90;;;;;;4970177;28;20486;-95
2021/11/02 22:03:47;;;;;;;11.30;9.30;;;6.80;99.90;;;;;;4979067;28;20080;-94
2021/11/02 22:06:28;;;;;;;14.88;10.55;;;6.80;99.90;;;;;;4997018;28;20117;-93
2021/11/02 22:09:34;;;;;;;;;;;;;;;;;;;;;
2021/11/02 22:12:37;;;;;;;13.77;10.27;;;6.60;99.90;;;;;;4994377;28;20129;-94
2021/11/02 22:15:12;;;;;;;13.50;9.57;;;6.60;99.90;;;;;;4993684;28;20042;-93
2021/11/02 22:18:02;;;;;;;14.50;10.75;;;6.50;99.90;;;;;;4964335;28;20037;-94
2021/11/02 22:21:10;;;;;;;13.80;10.90;;;6.50;99.90;;;;;;4997707;28;20049;-93
2021/11/02 22:27:53;;;;;;;;;;;;;;;;;;;;;
2021/11/02 22:30:38;;;;;;;;;;;;;;;;;;;;;
2021/11/02 22:33:37;;;;;;;13.70;10.23;;;6.30;99.90;;;;;;4901261;29;20048;-93
2021/11/02 22:36:42;;;;;;;13.23;9.95;;;6.30;99.90;;;;;;4915277;29;20047;-91
2021/11/02 22:39:55;;;;;;;15.13;10.27;;;6.20;99.90;;;;;;4900882;29;20048;-94
2021/11/02 22:43:02;;;;;;;;;;;;;;;;;;;;;
2021/11/02 22:46:24;;;;;;;14.93;10.93;;;6.20;99.90;;;;;;4899055;29;20032;-92
2021/11/02 22:49:13;;;;;;;;;;;;;;;;;;;;;
2021/11/02 22:52:05;;;;;;;14.43;10.90;;;6.10;99.90;;;;;;4916837;29;20039;-92
2021/11/02 22:55:32;;;;;;;15.32;11.20;;;6.10;99.90;;;;;;4861586;29;20049;-92
2021/11/02 22:58:28;;;;;;;15.25;11.07;;;6.20;99.90;;;;;;4869960;29;20359;-92
2021/11/02 23:01:25;;;;;;;;;;;;;;;;;;;;;
2021/11/02 23:04:15;;;;;;;15.32;11.02;;;6.20;99.90;;;;;;4905987;29;20047;-92
2021/11/02 23:06:50;;;;;;;17.23;11.00;;;6.30;99.90;;;;;;4921157;29;20143;-92
2021/11/02 23:09:34;;;;;;;14.98;11.00;;;6.40;99.90;;;;;;4918832;29;20059;-92
2021/11/02 23:12:30;;;;;;;14.70;10.98;;;6.40;99.90;;;;;;4914125;29;20051;-92
2021/11/02 23:15:16;;;;;;;13.70;10.93;;;6.40;99.90;;;;;;4911874;29;20040;-92
2021/11/02 23:18:09;;;;;;;15.50;11.73;;;6.50;99.90;;;;;;4901241;29;20044;-91
2021/11/02 23:20:49;;;;;;;16.25;11.60;;;6.60;99.90;;;;;;4958027;28;20046;-91
2021/11/02 23:24:03;;;;;;;19.63;11.77;;;6.60;99.90;;;;;;4994280;28;20155;-92
2021/11/02 23:26:52;;;;;;;15.65;11.30;;;6.60;99.90;;;;;;4991833;28;20022;-93